Hypoluxo, Florida
Current Conditions -  °F | °C
As of 8:53 AM on Saturday 22 Nov 2014 (Local Time) from KPBI Reporting Station
Broken Clouds Broken Clouds  
Wind Chill: 78°   Ceiling: 5000
Heat Index: 80°   Visibility: 10mi
Dew Point: 67°   Wind: 23mph
Humidity: 68%   Direction: 80°E
Pressure: 30.2"   Gusts: 33mph
Location:  26.5758°N, 80.0835°W
Report Text: KPBI 221353Z 08020G29KT 10SM SCT025 BKN050 BKN250 26/19 A3020 RMK AO2 PK WND 08029/1350 SLP225 T02560194
Loading
Personal Weather Stations






























Interactive Weather Map New forecast layout! Learn more

10-Day Weather Forecast

Advertisements
Track Severe Weather on mobile